createdAt,value
2023-03-04T00:00:05.324Z,21.61
2023-03-04T00:02:31.872Z,21.62
2023-03-04T00:04:58.392Z,21.62
2023-03-04T00:07:24.905Z,21.61
2023-03-04T00:09:51.367Z,21.60
2023-03-04T00:12:26.768Z,21.61
2023-03-04T00:14:53.280Z,21.60
2023-03-04T00:17:19.839Z,21.60
2023-03-04T00:19:46.414Z,21.61
2023-03-04T00:22:12.947Z,21.58
2023-03-04T00:24:39.652Z,21.60
2023-03-04T00:27:06.206Z,21.62
2023-03-04T00:29:32.710Z,21.58
2023-03-04T00:31:59.366Z,21.59
2023-03-04T00:34:25.983Z,21.57
2023-03-04T00:36:52.462Z,21.55
2023-03-04T00:39:19.108Z,21.56
2023-03-04T00:41:45.797Z,21.54
2023-03-04T00:44:12.304Z,21.53
2023-03-04T00:46:38.934Z,21.54
2023-03-04T00:49:05.426Z,21.54
2023-03-04T00:51:31.903Z,21.55
2023-03-04T00:54:00.817Z,21.54
2023-03-04T00:56:27.989Z,21.54
2023-03-04T00:58:54.942Z,21.53
2023-03-04T01:01:21.555Z,21.53
2023-03-04T01:03:48.118Z,21.52
2023-03-04T01:06:14.633Z,21.51
2023-03-04T01:08:41.321Z,21.52
2023-03-04T01:11:08.049Z,21.52
2023-03-04T01:13:34.857Z,21.50
2023-03-04T01:16:01.606Z,21.50
2023-03-04T01:18:28.107Z,21.49
2023-03-04T01:20:54.917Z,21.48
2023-03-04T01:23:21.472Z,21.48
2023-03-04T01:25:48.276Z,21.48
2023-03-04T01:28:14.785Z,21.48
2023-03-04T01:30:41.514Z,21.47
2023-03-04T01:33:08.255Z,21.47
2023-03-04T01:35:34.781Z,21.46
2023-03-04T01:38:01.362Z,21.46
2023-03-04T01:40:27.900Z,21.46
2023-03-04T01:42:54.469Z,21.46
2023-03-04T01:45:21.200Z,21.45
2023-03-04T01:47:49.526Z,21.44
2023-03-04T01:50:29.603Z,21.45
2023-03-04T01:52:56.237Z,21.45
2023-03-04T01:55:24.374Z,21.44
2023-03-04T01:57:52.856Z,21.44
2023-03-04T02:00:27.449Z,21.43
2023-03-04T02:02:58.444Z,21.42
2023-03-04T02:05:25.722Z,21.42
2023-03-04T02:07:54.671Z,21.41
2023-03-04T02:10:21.877Z,21.41
2023-03-04T02:12:48.824Z,21.41
2023-03-04T02:15:15.390Z,21.41
2023-03-04T02:17:42.136Z,21.40
2023-03-04T02:20:24.164Z,21.40
2023-03-04T02:23:11.796Z,21.40
2023-03-04T02:25:52.757Z,21.40
2023-03-04T02:28:19.486Z,21.39
2023-03-04T02:30:46.355Z,21.39
2023-03-04T02:33:18.748Z,21.38
2023-03-04T02:35:46.460Z,21.39
2023-03-04T02:38:13.068Z,21.38
2023-03-04T02:40:43.177Z,21.38
2023-03-04T02:43:12.015Z,21.39
2023-03-04T02:45:47.847Z,21.38
2023-03-04T02:48:16.735Z,21.37
2023-03-04T02:50:47.358Z,21.38
2023-03-04T02:53:13.825Z,21.38
2023-03-04T02:55:41.478Z,21.36
2023-03-04T02:58:07.975Z,21.35
2023-03-04T03:00:34.510Z,21.34
2023-03-04T03:03:01.179Z,21.32
2023-03-04T03:05:31.316Z,21.32
2023-03-04T03:07:57.918Z,21.33
2023-03-04T03:10:25.217Z,21.32
2023-03-04T03:12:51.827Z,21.33
2023-03-04T03:15:18.978Z,21.33
2023-03-04T03:17:46.049Z,21.32
2023-03-04T03:20:13.614Z,21.32
2023-03-04T03:22:40.924Z,21.31
2023-03-04T03:25:08.662Z,21.30
2023-03-04T03:27:35.281Z,21.30
2023-03-04T03:30:02.033Z,21.29
2023-03-04T03:32:28.565Z,21.31
2023-03-04T03:34:55.120Z,21.30
2023-03-04T03:37:21.713Z,21.29
2023-03-04T03:39:48.292Z,21.30
2023-03-04T03:42:14.811Z,21.30
2023-03-04T03:44:41.447Z,21.29
2023-03-04T03:47:08.018Z,21.29
2023-03-04T03:49:34.525Z,21.27
2023-03-04T03:52:01.195Z,21.28
2023-03-04T03:54:27.679Z,21.28
2023-03-04T03:56:54.255Z,21.29
2023-03-04T03:59:20.735Z,21.28
2023-03-04T04:01:47.401Z,21.28
2023-03-04T04:04:14.087Z,21.26
2023-03-04T04:06:40.687Z,21.26
2023-03-04T04:09:07.265Z,21.24
2023-03-04T04:11:33.785Z,21.25
2023-03-04T04:14:00.361Z,21.25
2023-03-04T04:16:26.900Z,21.25
2023-03-04T04:18:53.458Z,21.24
2023-03-04T04:21:20.136Z,21.24
2023-03-04T04:23:46.623Z,21.23
2023-03-04T04:26:13.188Z,21.23
2023-03-04T04:28:39.845Z,21.22
2023-03-04T04:31:09.055Z,21.22
2023-03-04T04:33:36.395Z,21.23
2023-03-04T04:36:04.960Z,21.23
2023-03-04T04:38:31.481Z,21.24
2023-03-04T04:40:59.470Z,21.23
2023-03-04T04:43:26.073Z,21.22
2023-03-04T04:45:52.823Z,21.21
2023-03-04T04:48:19.414Z,21.20
2023-03-04T04:50:46.078Z,21.20
2023-03-04T04:53:13.709Z,21.21
2023-03-04T04:55:40.263Z,21.19
2023-03-04T04:58:07.800Z,21.20
2023-03-04T05:00:34.497Z,21.19
2023-03-04T05:03:01.055Z,21.18
2023-03-04T05:05:27.607Z,21.19
2023-03-04T05:07:54.116Z,21.22
2023-03-04T05:10:20.806Z,21.26
2023-03-04T05:12:47.357Z,21.28
2023-03-04T05:15:13.895Z,21.34
2023-03-04T05:17:40.449Z,21.38
2023-03-04T05:20:07.561Z,21.40
2023-03-04T05:22:34.115Z,21.42
2023-03-04T05:25:00.635Z,21.44
2023-03-04T05:27:27.144Z,21.45
2023-03-04T05:29:55.596Z,21.45
2023-03-04T05:32:22.183Z,21.45
2023-03-04T05:34:48.757Z,21.48
2023-03-04T05:37:15.253Z,21.48
2023-03-04T05:39:41.763Z,21.47
2023-03-04T05:42:08.329Z,21.46
2023-03-04T05:44:34.880Z,21.46
2023-03-04T05:47:01.407Z,21.46
2023-03-04T05:49:28.021Z,21.49
2023-03-04T05:51:54.555Z,21.50
2023-03-04T05:54:21.728Z,21.49
2023-03-04T05:56:48.270Z,21.50
2023-03-04T05:59:20.378Z,21.50
2023-03-04T06:01:47.793Z,21.49
2023-03-04T06:04:14.334Z,21.50
2023-03-04T06:06:40.956Z,21.50
2023-03-04T06:09:07.482Z,21.51
2023-03-04T06:11:36.228Z,21.50
2023-03-04T06:14:03.119Z,21.48
2023-03-04T06:16:29.749Z,21.49
2023-03-04T06:18:56.418Z,21.48
2023-03-04T06:21:22.951Z,21.49
2023-03-04T06:23:49.499Z,21.48
2023-03-04T06:26:16.290Z,21.49
2023-03-04T06:28:43.672Z,21.49
2023-03-04T06:31:11.220Z,21.50
2023-03-04T06:33:37.825Z,21.51
2023-03-04T06:36:04.647Z,21.52
2023-03-04T06:38:31.182Z,21.53
2023-03-04T06:41:05.673Z,21.53
2023-03-04T06:43:32.254Z,21.53
2023-03-04T06:45:58.810Z,21.53
2023-03-04T06:48:25.300Z,21.53
2023-03-04T06:50:51.840Z,21.54
2023-03-04T06:53:18.363Z,21.53
2023-03-04T06:55:44.952Z,21.52
2023-03-04T06:58:11.456Z,21.52
2023-03-04T07:00:37.987Z,21.53
2023-03-04T07:03:04.488Z,21.54
2023-03-04T07:05:31.029Z,21.58
2023-03-04T07:07:57.601Z,21.62
2023-03-04T07:10:24.168Z,21.67
2023-03-04T07:12:50.690Z,21.71
2023-03-04T07:15:17.280Z,21.72
2023-03-04T07:17:43.830Z,21.72
2023-03-04T07:20:10.926Z,21.71
2023-03-04T07:22:37.462Z,21.71
2023-03-04T07:25:05.514Z,21.70
2023-03-04T07:27:32.309Z,21.70
2023-03-04T07:29:58.875Z,21.68
2023-03-04T07:32:26.640Z,21.68
2023-03-04T07:34:53.138Z,21.67
2023-03-04T07:37:19.714Z,21.65
2023-03-04T07:39:46.200Z,21.64
2023-03-04T07:42:12.828Z,21.63
2023-03-04T07:44:39.381Z,21.63
2023-03-04T07:47:06.014Z,21.63
2023-03-04T07:49:32.514Z,21.64
2023-03-04T07:52:02.573Z,21.64
2023-03-04T07:54:29.072Z,21.64
2023-03-04T07:56:56.724Z,21.65
2023-03-04T07:59:23.502Z,21.65
2023-03-04T08:01:50.002Z,21.65
2023-03-04T08:04:16.521Z,21.65
2023-03-04T08:06:43.621Z,21.66
2023-03-04T08:09:13.547Z,21.65
2023-03-04T08:11:40.787Z,21.66
2023-03-04T08:14:07.544Z,21.64
2023-03-04T08:16:34.087Z,21.64
2023-03-04T08:19:02.472Z,21.64
2023-03-04T08:21:29.815Z,21.64
2023-03-04T08:23:59.293Z,21.63
2023-03-04T08:26:29.743Z,21.63
2023-03-04T08:28:57.842Z,21.64
2023-03-04T08:31:24.860Z,21.65
2023-03-04T08:33:52.693Z,21.66
2023-03-04T08:36:20.046Z,21.67
2023-03-04T08:38:46.759Z,21.68
2023-03-04T08:41:13.690Z,21.68
2023-03-04T08:43:40.384Z,21.69
2023-03-04T08:46:07.202Z,21.69
2023-03-04T08:48:34.390Z,21.71
2023-03-04T08:51:01.058Z,21.71
2023-03-04T08:53:27.637Z,21.72
2023-03-04T08:55:54.243Z,21.70
2023-03-04T08:58:20.817Z,21.70
2023-03-04T09:00:49.834Z,21.71
2023-03-04T09:03:18.990Z,21.71
2023-03-04T09:05:46.867Z,21.70
2023-03-04T09:08:14.672Z,21.70
2023-03-04T09:10:41.789Z,21.72
2023-03-04T09:13:11.318Z,21.72
2023-03-04T09:15:39.158Z,21.72
2023-03-04T09:18:06.110Z,21.72
2023-03-04T09:20:34.417Z,21.73
2023-03-04T09:23:01.069Z,21.72
2023-03-04T09:25:28.159Z,21.73
2023-03-04T09:27:54.701Z,21.74
2023-03-04T09:30:21.571Z,21.73
2023-03-04T09:32:48.389Z,21.72
2023-03-04T09:35:14.971Z,21.73
2023-03-04T09:37:41.936Z,21.73
2023-03-04T09:40:11.660Z,21.73
2023-03-04T09:42:48.994Z,21.72
2023-03-04T09:45:20.256Z,21.72
2023-03-04T09:47:49.302Z,21.72
2023-03-04T09:50:16.501Z,21.73
2023-03-04T09:52:56.143Z,21.74
2023-03-04T09:55:31.573Z,21.77
2023-03-04T09:58:01.124Z,21.76
2023-03-04T10:00:45.748Z,21.76
2023-03-04T10:03:19.648Z,21.76
2023-03-04T10:05:59.366Z,21.78
2023-03-04T10:08:41.142Z,21.79
2023-03-04T10:11:29.431Z,21.78
2023-03-04T10:14:21.123Z,21.80
2023-03-04T10:17:09.541Z,21.81
2023-03-04T10:19:52.602Z,21.81
2023-03-04T10:22:36.086Z,21.81
2023-03-04T10:25:15.138Z,21.82
2023-03-04T10:27:43.673Z,21.82
2023-03-04T10:30:23.259Z,21.85
2023-03-04T10:32:49.816Z,21.87
2023-03-04T10:37:50.836Z,21.93
2023-03-04T10:40:25.934Z,21.98
2023-03-04T10:42:53.894Z,22.01
2023-03-04T10:45:24.105Z,22.03
2023-03-04T10:47:56.393Z,22.05
2023-03-04T10:50:28.533Z,22.09
2023-03-04T10:52:56.772Z,22.13
2023-03-04T10:55:42.841Z,22.15
2023-03-04T10:58:20.313Z,22.16
2023-03-04T11:01:00.264Z,22.19
2023-03-04T11:03:37.333Z,22.18
2023-03-04T11:06:22.211Z,22.21
2023-03-04T11:08:57.610Z,22.23
2023-03-04T11:11:34.556Z,22.23
2023-03-04T11:14:10.670Z,22.24
2023-03-04T11:16:37.339Z,22.26
2023-03-04T11:19:16.703Z,22.27
2023-03-04T11:21:43.696Z,22.28
2023-03-04T11:24:28.739Z,22.32
2023-03-04T11:27:06.580Z,22.35
2023-03-04T11:29:43.810Z,22.38
2023-03-04T11:32:20.928Z,22.37
2023-03-04T11:35:13.523Z,22.36
2023-03-04T11:38:05.059Z,22.34
2023-03-04T11:40:45.144Z,22.32
2023-03-04T11:43:16.785Z,22.32
2023-03-04T11:45:59.769Z,22.31
2023-03-04T11:48:49.760Z,22.30
2023-03-04T11:51:25.383Z,22.29
2023-03-04T11:54:03.872Z,22.33
2023-03-04T11:56:36.714Z,22.34
2023-03-04T11:59:24.667Z,22.37
2023-03-04T12:02:08.139Z,22.39
2023-03-04T12:04:49.992Z,22.43
2023-03-04T12:07:35.134Z,22.45
2023-03-04T12:10:13.816Z,22.49
2023-03-04T12:13:07.190Z,22.51
2023-03-04T12:15:42.833Z,22.51
2023-03-04T12:18:12.127Z,22.50
2023-03-04T12:20:57.932Z,22.49
2023-03-04T12:23:33.603Z,22.52
2023-03-04T12:26:17.550Z,22.53
2023-03-04T12:28:52.548Z,22.54
2023-03-04T12:31:36.332Z,22.53
2023-03-04T12:34:30.528Z,22.52
2023-03-04T12:37:18.975Z,22.51
2023-03-04T12:40:11.670Z,22.51
2023-03-04T12:42:50.814Z,22.50
2023-03-04T12:45:38.673Z,22.49
2023-03-04T12:48:23.337Z,22.49
2023-03-04T12:51:09.740Z,22.48
2023-03-04T12:53:41.728Z,22.46
2023-03-04T12:56:32.069Z,22.48
2023-03-04T12:59:00.125Z,22.49
2023-03-04T13:01:34.065Z,22.51
2023-03-04T13:04:14.177Z,22.54
2023-03-04T13:06:57.497Z,22.57
2023-03-04T13:09:31.500Z,22.58
2023-03-04T13:12:24.253Z,22.57
2023-03-04T13:15:08.976Z,22.58
2023-03-04T13:17:38.331Z,22.58
2023-03-04T13:20:43.886Z,22.58
2023-03-04T13:23:13.315Z,22.57
2023-03-04T13:26:08.035Z,22.54
2023-03-04T13:28:38.002Z,22.54
2023-03-04T13:31:09.713Z,22.51
2023-03-04T13:33:36.257Z,22.50
2023-03-04T13:36:25.722Z,22.51
2023-03-04T13:39:15.955Z,22.56
2023-03-04T13:41:50.911Z,22.60
2023-03-04T13:44:56.840Z,22.62
2023-03-04T13:47:48.661Z,22.65
2023-03-04T13:50:34.761Z,22.68
2023-03-04T13:53:31.008Z,22.67
2023-03-04T13:56:18.916Z,22.67
2023-03-04T13:58:46.162Z,22.67
2023-03-04T14:01:33.913Z,22.66
2023-03-04T14:04:02.137Z,22.65
2023-03-04T14:06:30.946Z,22.64
2023-03-04T14:08:58.528Z,22.61
2023-03-04T14:11:29.640Z,22.60
2023-03-04T14:13:58.134Z,22.61
2023-03-04T14:16:29.047Z,22.58
2023-03-04T14:19:05.368Z,22.58
2023-03-04T14:21:32.656Z,22.61
2023-03-04T14:24:08.333Z,22.64
2023-03-04T14:26:35.015Z,22.66
2023-03-04T14:29:02.924Z,22.70
2023-03-04T14:31:31.778Z,22.70
2023-03-04T14:34:02.320Z,22.73
2023-03-04T14:36:37.006Z,22.75
2023-03-04T14:39:06.854Z,22.75
2023-03-04T14:41:35.620Z,22.76
2023-03-04T14:44:26.945Z,22.76
2023-03-04T14:47:07.847Z,22.76
2023-03-04T14:49:37.519Z,22.75
2023-03-04T14:52:04.600Z,22.73
2023-03-04T14:54:35.694Z,22.74
2023-03-04T14:57:22.246Z,22.72
2023-03-04T14:59:48.883Z,22.73
2023-03-04T15:02:41.250Z,22.71
2023-03-04T15:05:29.413Z,22.71
2023-03-04T15:07:58.648Z,22.70
2023-03-04T15:10:37.367Z,22.68
2023-03-04T15:13:09.181Z,22.67
2023-03-04T15:15:40.931Z,22.65
2023-03-04T15:18:27.770Z,22.63
2023-03-04T15:20:55.875Z,22.63
2023-03-04T15:23:22.512Z,22.61
2023-03-04T15:25:57.446Z,22.62
2023-03-04T15:28:25.123Z,22.62
2023-03-04T15:30:52.040Z,22.61
2023-03-04T15:33:21.044Z,22.61
2023-03-04T15:35:57.235Z,22.63
2023-03-04T15:38:24.882Z,22.63
2023-03-04T15:40:54.270Z,22.62
2023-03-04T15:43:23.047Z,22.62
2023-03-04T15:45:51.459Z,22.63
2023-03-04T15:48:19.046Z,22.62
2023-03-04T15:50:48.098Z,22.60
2023-03-04T15:53:21.512Z,22.60
2023-03-04T15:55:48.226Z,22.59
2023-03-04T15:58:15.948Z,22.58
2023-03-04T16:00:42.958Z,22.57
2023-03-04T16:03:18.270Z,22.57
2023-03-04T16:05:47.470Z,22.56
2023-03-04T16:08:16.947Z,22.57
2023-03-04T16:10:46.387Z,22.56
2023-03-04T16:13:18.037Z,22.55
2023-03-04T16:15:44.783Z,22.54
2023-03-04T16:18:12.614Z,22.52
2023-03-04T16:20:42.015Z,22.52
2023-03-04T16:23:14.237Z,22.51
2023-03-04T16:25:44.744Z,22.52
2023-03-04T16:28:11.872Z,22.53
2023-03-04T16:30:38.836Z,22.50
2023-03-04T16:33:05.560Z,22.49
2023-03-04T16:35:34.450Z,22.48
2023-03-04T16:38:01.249Z,22.47
2023-03-04T16:40:30.426Z,22.47
2023-03-04T16:42:57.150Z,22.46
2023-03-04T16:45:30.287Z,22.46
2023-03-04T16:47:57.378Z,22.45
2023-03-04T16:50:27.433Z,22.46
2023-03-04T16:52:55.339Z,22.45
2023-03-04T16:55:28.263Z,22.45
2023-03-04T16:57:55.940Z,22.44
2023-03-04T17:00:23.431Z,22.44
2023-03-04T17:03:01.228Z,22.43
2023-03-04T17:05:31.152Z,22.43
2023-03-04T17:07:58.174Z,22.43
2023-03-04T17:10:24.871Z,22.43
2023-03-04T17:12:52.151Z,22.41
2023-03-04T17:15:18.801Z,22.42
2023-03-04T17:17:46.123Z,22.40
2023-03-04T17:20:17.768Z,22.40
2023-03-04T17:22:44.635Z,22.38
2023-03-04T17:25:12.442Z,22.37
2023-03-04T17:27:39.125Z,22.38
2023-03-04T17:30:08.019Z,22.40
2023-03-04T17:32:35.697Z,22.38
2023-03-04T17:35:03.336Z,22.37
2023-03-04T17:37:29.931Z,22.37
2023-03-04T17:39:56.504Z,22.37
2023-03-04T17:42:23.102Z,22.36
2023-03-04T17:44:49.734Z,22.36
2023-03-04T17:47:16.400Z,22.38
2023-03-04T17:49:43.028Z,22.38
2023-03-04T17:52:11.498Z,22.35
2023-03-04T17:54:38.109Z,22.36
2023-03-04T17:57:05.133Z,22.34
2023-03-04T17:59:31.708Z,22.34
2023-03-04T18:01:58.356Z,22.34
2023-03-04T18:04:25.013Z,22.33
2023-03-04T18:06:51.554Z,22.33
2023-03-04T18:09:18.541Z,22.34
2023-03-04T18:11:45.051Z,22.33
2023-03-04T18:14:12.833Z,22.32
2023-03-04T18:16:40.446Z,22.32
2023-03-04T18:19:09.682Z,22.32
2023-03-04T18:21:36.524Z,22.31
2023-03-04T18:24:03.661Z,22.30
2023-03-04T18:26:30.529Z,22.30
2023-03-04T18:28:57.577Z,22.30
2023-03-04T18:31:30.172Z,22.31
2023-03-04T18:34:00.375Z,22.29
2023-03-04T18:36:27.127Z,22.29
2023-03-04T18:38:53.756Z,22.27
2023-03-04T18:41:20.457Z,22.27
2023-03-04T18:43:47.061Z,22.27
2023-03-04T18:46:40.950Z,22.26
2023-03-04T18:49:11.180Z,22.27
2023-03-04T18:51:37.778Z,22.27
2023-03-04T18:54:04.641Z,22.26
2023-03-04T18:56:46.843Z,22.25
2023-03-04T18:59:16.343Z,22.26
2023-03-04T19:01:43.441Z,22.25
2023-03-04T19:04:10.582Z,22.25
2023-03-04T19:06:37.329Z,22.25
2023-03-04T19:09:05.813Z,22.25
2023-03-04T19:11:32.570Z,22.24
2023-03-04T19:14:00.245Z,22.23
2023-03-04T19:16:26.812Z,22.23
2023-03-04T19:18:53.629Z,22.22
2023-03-04T19:21:20.226Z,22.21
2023-03-04T19:23:46.817Z,22.22
2023-03-04T19:26:15.383Z,22.21
2023-03-04T19:28:42.538Z,22.21
2023-03-04T19:31:11.177Z,22.21
2023-03-04T19:33:41.586Z,22.21
2023-03-04T19:36:09.608Z,22.20
2023-03-04T19:38:37.088Z,22.21
2023-03-04T19:41:12.689Z,22.20
2023-03-04T19:43:39.588Z,22.20
2023-03-04T19:46:10.381Z,22.18
2023-03-04T19:48:38.535Z,22.20
2023-03-04T19:51:14.413Z,22.19
2023-03-04T19:53:41.056Z,22.17
2023-03-04T19:56:07.964Z,22.17
2023-03-04T19:58:34.498Z,22.16
2023-03-04T20:01:01.179Z,22.17
2023-03-04T20:03:27.772Z,22.16
2023-03-04T20:06:08.717Z,22.17
2023-03-04T20:08:38.277Z,22.16
2023-03-04T20:11:12.743Z,22.18
2023-03-04T20:13:39.361Z,22.17
2023-03-04T20:16:10.881Z,22.17
2023-03-04T20:18:38.150Z,22.16
2023-03-04T20:21:05.133Z,22.16
2023-03-04T20:23:31.905Z,22.15
2023-03-04T20:25:58.454Z,22.15
2023-03-04T20:28:25.627Z,22.15
2023-03-04T20:30:53.429Z,22.14
2023-03-04T20:33:20.484Z,22.14
2023-03-04T20:35:47.152Z,22.14
2023-03-04T20:38:14.405Z,22.13
2023-03-04T20:40:41.562Z,22.12
2023-03-04T20:43:08.036Z,22.12
2023-03-04T20:45:36.397Z,22.12
2023-03-04T20:48:03.854Z,22.11
2023-03-04T20:50:30.480Z,22.11
2023-03-04T20:52:57.023Z,22.10
2023-03-04T20:55:24.385Z,22.09
2023-03-04T20:57:50.959Z,22.10
2023-03-04T21:00:17.773Z,22.09
2023-03-04T21:02:44.364Z,22.09
2023-03-04T21:05:10.977Z,22.08
2023-03-04T21:07:37.692Z,22.07
2023-03-04T21:10:04.548Z,22.06
2023-03-04T21:12:31.050Z,22.05
2023-03-04T21:14:57.572Z,22.06
2023-03-04T21:17:24.687Z,22.05
2023-03-04T21:19:51.249Z,22.06
2023-03-04T21:22:19.252Z,22.05
2023-03-04T21:24:46.474Z,22.06
2023-03-04T21:27:13.623Z,22.05
2023-03-04T21:29:40.199Z,22.05
2023-03-04T21:32:23.670Z,22.04
2023-03-04T21:34:52.181Z,22.03
2023-03-04T21:37:20.632Z,22.02
2023-03-04T21:39:47.359Z,22.00
2023-03-04T21:42:14.190Z,21.99
2023-03-04T21:44:49.137Z,21.98
2023-03-04T21:47:17.368Z,21.98
2023-03-04T21:49:44.608Z,21.97
2023-03-04T21:52:11.287Z,21.98
2023-03-04T21:54:37.826Z,21.96
2023-03-04T21:57:04.421Z,21.94
2023-03-04T21:59:31.082Z,21.93
2023-03-04T22:01:57.914Z,21.94
2023-03-04T22:04:24.590Z,21.92
2023-03-04T22:06:51.116Z,21.91
2023-03-04T22:09:17.610Z,21.89
2023-03-04T22:11:45.267Z,21.90
2023-03-04T22:14:12.680Z,21.88
2023-03-04T22:16:54.048Z,21.87
2023-03-04T22:19:25.404Z,21.87
2023-03-04T22:21:52.581Z,21.87
2023-03-04T22:24:19.807Z,21.84
2023-03-04T22:26:46.386Z,21.81
2023-03-04T22:29:12.952Z,21.80
2023-03-04T22:31:39.654Z,21.77
2023-03-04T22:34:06.165Z,21.76
2023-03-04T22:36:34.803Z,21.77
2023-03-04T22:39:02.601Z,21.76
2023-03-04T22:41:29.286Z,21.75
2023-03-04T22:43:56.580Z,21.73
2023-03-04T22:46:29.705Z,21.74
2023-03-04T22:48:59.790Z,21.73
2023-03-04T22:51:27.327Z,21.72
2023-03-04T22:53:54.057Z,21.72
2023-03-04T22:56:21.236Z,21.70
2023-03-04T22:58:49.083Z,21.69
2023-03-04T23:01:17.948Z,21.68
2023-03-04T23:03:46.857Z,21.69
2023-03-04T23:06:14.780Z,21.68
2023-03-04T23:08:43.179Z,21.66
2023-03-04T23:11:15.689Z,21.66
2023-03-04T23:13:42.353Z,21.64
2023-03-04T23:16:12.570Z,21.65
2023-03-04T23:18:41.058Z,21.63
2023-03-04T23:21:11.683Z,21.61
2023-03-04T23:23:39.788Z,21.62
2023-03-04T23:26:12.857Z,21.61
2023-03-04T23:28:39.378Z,21.61
2023-03-04T23:31:06.793Z,21.59
2023-03-04T23:33:33.332Z,21.59
2023-03-04T23:35:59.991Z,21.58
2023-03-04T23:38:26.825Z,21.56
2023-03-04T23:40:53.328Z,21.56
2023-03-04T23:43:19.873Z,21.56
2023-03-04T23:45:46.427Z,21.56
2023-03-04T23:48:13.001Z,21.53
2023-03-04T23:50:39.589Z,21.53
2023-03-04T23:53:06.122Z,21.54
2023-03-04T23:55:34.300Z,21.53
2023-03-04T23:58:00.831Z,21.51
